createdAt,value
2023-07-25T00:01:24.699Z,99643.81
2023-07-25T00:03:17.519Z,99642.19
2023-07-25T00:05:13.634Z,99651.78
2023-07-25T00:07:09.473Z,99661.44
2023-07-25T00:09:04.844Z,99659.38
2023-07-25T00:10:59.910Z,99655.50
2023-07-25T00:12:54.516Z,99649.97
2023-07-25T00:14:49.938Z,99652.44
2023-07-25T00:16:45.108Z,99652.00
2023-07-25T00:18:40.519Z,99662.66
2023-07-25T00:20:35.616Z,99651.41
2023-07-25T00:22:30.641Z,99653.66
2023-07-25T00:24:28.804Z,99656.91
2023-07-25T00:26:23.904Z,99644.66
2023-07-25T00:28:23.645Z,99648.09
2023-07-25T00:30:18.974Z,99655.06
2023-07-25T00:32:11.755Z,99641.63
2023-07-25T00:34:07.921Z,99662.66
2023-07-25T00:36:03.751Z,99662.88
2023-07-25T00:37:58.822Z,99664.09
2023-07-25T00:39:58.505Z,99667.16
2023-07-25T00:41:54.140Z,99659.59
2023-07-25T00:43:46.542Z,99662.88
2023-07-25T00:45:42.025Z,99661.22
2023-07-25T00:47:37.286Z,99649.38
2023-07-25T00:49:30.874Z,99657.13
2023-07-25T00:51:26.793Z,99661.84
2023-07-25T00:53:22.399Z,99657.75
2023-07-25T00:55:20.876Z,99667.56
2023-07-25T00:57:13.851Z,99665.53
2023-07-25T00:59:09.282Z,99662.88
2023-07-25T01:01:06.523Z,99662.44
2023-07-25T01:03:01.985Z,99662.03
2023-07-25T01:04:57.506Z,99671.63
2023-07-25T01:06:53.983Z,99675.94
2023-07-25T01:08:52.633Z,99665.91
2023-07-25T01:10:50.592Z,99663.47
2023-07-25T01:12:46.275Z,99663.47
2023-07-25T01:14:41.061Z,99658.97
2023-07-25T01:16:37.307Z,99661.63
2023-07-25T01:18:33.061Z,99664.28
2023-07-25T01:20:28.959Z,99660.19
2023-07-25T01:22:26.602Z,99671.03
2023-07-25T01:24:26.492Z,99671.03
2023-07-25T01:26:21.953Z,99673.06
2023-07-25T01:28:14.937Z,99681.03
2023-07-25T01:30:11.697Z,99678.16
2023-07-25T01:32:05.470Z,99688.00
2023-07-25T01:34:00.663Z,99683.91
2023-07-25T01:35:55.790Z,99681.47
2023-07-25T01:37:51.264Z,99685.75
2023-07-25T01:39:49.628Z,99681.44
2023-07-25T01:41:46.681Z,99689.41
2023-07-25T01:43:41.747Z,99694.34
2023-07-25T01:45:36.856Z,99695.38
2023-07-25T01:47:29.777Z,99694.75
2023-07-25T01:49:24.967Z,99692.09
2023-07-25T01:51:20.478Z,99691.69
2023-07-25T01:53:15.472Z,99689.44
2023-07-25T01:55:11.213Z,99688.00
2023-07-25T01:57:07.034Z,99687.81
2023-07-25T01:59:02.388Z,99691.06
2023-07-25T02:00:57.985Z,99689.00
2023-07-25T02:02:53.180Z,99694.97
2023-07-25T02:04:48.282Z,99691.28
2023-07-25T02:06:43.832Z,99690.25
2023-07-25T02:08:36.432Z,99685.94
2023-07-25T02:10:34.043Z,99691.25
2023-07-25T02:12:29.986Z,99694.31
2023-07-25T02:14:25.166Z,99695.97
2023-07-25T02:16:18.022Z,99702.69
2023-07-25T02:18:13.060Z,99704.56
2023-07-25T02:20:07.491Z,99707.63
2023-07-25T02:22:02.838Z,99706.59
2023-07-25T02:23:55.356Z,99710.28
2023-07-25T02:25:52.966Z,99720.50
2023-07-25T02:27:48.401Z,99724.16
2023-07-25T02:29:43.479Z,99723.34
2023-07-25T02:31:38.588Z,99718.84
2023-07-25T02:33:31.442Z,99718.44
2023-07-25T02:35:26.513Z,99725.19
2023-07-25T02:37:21.694Z,99720.28
2023-07-25T02:39:17.090Z,99729.28
2023-07-25T02:41:14.870Z,99728.84
2023-07-25T02:43:11.295Z,99723.34
2023-07-25T02:45:06.608Z,99727.63
2023-07-25T02:47:01.772Z,99729.69
2023-07-25T02:48:57.225Z,99727.03
2023-07-25T02:50:49.705Z,99730.91
2023-07-25T02:52:45.463Z,99724.97
2023-07-25T02:54:40.527Z,99728.66
2023-07-25T02:56:38.227Z,99727.84
2023-07-25T02:58:31.044Z,99734.59
2023-07-25T03:00:26.512Z,99741.31
2023-07-25T03:02:21.983Z,99746.44
2023-07-25T03:04:17.062Z,99741.94
2023-07-25T03:06:13.196Z,99740.69
2023-07-25T03:08:08.615Z,99740.28
2023-07-25T03:10:01.144Z,99745.00
2023-07-25T03:12:02.331Z,99743.38
2023-07-25T03:13:58.161Z,99748.28
2023-07-25T03:15:53.569Z,99740.91
2023-07-25T03:17:48.660Z,99737.63
2023-07-25T03:19:41.556Z,99740.28
2023-07-25T03:21:36.664Z,99741.09
2023-07-25T03:23:31.745Z,99740.50
2023-07-25T03:25:27.173Z,99739.28
2023-07-25T03:27:25.180Z,99746.84
2023-07-25T03:29:20.850Z,99749.50
2023-07-25T03:31:16.152Z,99754.19
2023-07-25T03:33:11.863Z,99752.75
2023-07-25T03:35:08.062Z,99753.56
2023-07-25T03:37:03.848Z,99753.78
2023-07-25T03:38:59.165Z,99752.34
2023-07-25T03:40:55.032Z,99741.72
2023-07-25T03:42:50.382Z,99738.47
2023-07-25T03:44:46.035Z,99741.94
2023-07-25T03:46:38.786Z,99738.25
2023-07-25T03:48:35.969Z,99740.91
2023-07-25T03:50:32.086Z,99731.72
2023-07-25T03:52:28.539Z,99744.19
2023-07-25T03:54:24.888Z,99736.63
2023-07-25T03:56:20.219Z,99735.19
2023-07-25T03:58:18.694Z,99724.78
2023-07-25T04:00:15.761Z,99734.97
2023-07-25T04:02:11.822Z,99738.25
2023-07-25T04:04:04.949Z,99729.06
2023-07-25T04:06:00.785Z,99737.22
2023-07-25T04:07:56.134Z,99736.81
2023-07-25T04:09:49.321Z,99745.44
2023-07-25T04:11:44.792Z,99736.63
2023-07-25T04:13:40.582Z,99738.66
2023-07-25T04:15:35.957Z,99742.97
2023-07-25T04:17:31.767Z,99753.16
2023-07-25T04:19:24.867Z,99753.97
2023-07-25T04:21:20.681Z,99754.41
2023-07-25T04:23:16.255Z,99755.81
2023-07-25T04:25:12.273Z,99767.06
2023-07-25T04:27:08.675Z,99759.91
2023-07-25T04:29:04.424Z,99755.44
2023-07-25T04:30:59.797Z,99761.09
2023-07-25T04:32:55.708Z,99759.28
2023-07-25T04:34:51.239Z,99759.69
2023-07-25T04:36:47.052Z,99755.81
2023-07-25T04:38:39.864Z,99759.28
2023-07-25T04:40:35.527Z,99760.31
2023-07-25T04:42:30.962Z,99763.78
2023-07-25T04:44:29.273Z,99766.88
2023-07-25T04:46:24.728Z,99778.31
2023-07-25T04:48:17.828Z,99780.13
2023-07-25T04:50:13.769Z,99778.69
2023-07-25T04:52:07.604Z,99777.84
2023-07-25T04:54:03.043Z,99780.91
2023-07-25T04:55:58.781Z,99774.78
2023-07-25T04:57:54.558Z,99776.00
2023-07-25T04:59:52.937Z,99769.47
2023-07-25T05:01:48.328Z,99772.72
2023-07-25T05:03:44.210Z,99758.88
2023-07-25T05:05:37.153Z,99752.75
2023-07-25T05:07:33.010Z,99747.63
2023-07-25T05:09:28.372Z,99749.91
2023-07-25T05:11:24.126Z,99754.59
2023-07-25T05:13:19.446Z,99750.50
2023-07-25T05:15:14.844Z,99747.03
2023-07-25T05:17:10.584Z,99748.69
2023-07-25T05:19:05.970Z,99751.34
2023-07-25T05:21:01.005Z,99729.66
2023-07-25T05:22:56.356Z,99722.53
2023-07-25T05:24:51.564Z,99718.88
2023-07-25T05:26:47.067Z,99713.94
2023-07-25T05:28:42.428Z,99723.53
2023-07-25T05:30:40.598Z,99725.78
2023-07-25T05:32:37.506Z,99727.84
2023-07-25T05:34:33.411Z,99729.66
2023-07-25T05:36:28.547Z,99735.63
2023-07-25T05:38:24.034Z,99746.84
2023-07-25T05:40:19.078Z,99745.00
2023-07-25T05:42:11.901Z,99746.66
2023-07-25T05:44:07.661Z,99752.16
2023-07-25T05:46:05.369Z,99758.91
2023-07-25T05:47:58.332Z,99758.69
2023-07-25T05:49:54.104Z,99770.53
2023-07-25T05:51:49.468Z,99773.81
2023-07-25T05:53:44.527Z,99787.91
2023-07-25T05:55:39.943Z,99799.75
2023-07-25T05:57:35.037Z,99801.41
2023-07-25T05:59:30.501Z,99826.13
2023-07-25T06:01:25.675Z,99835.94
2023-07-25T06:03:21.239Z,99843.06
2023-07-25T06:05:16.345Z,99847.13
2023-07-25T06:07:11.780Z,99842.22
2023-07-25T06:09:06.954Z,99834.66
2023-07-25T06:11:02.468Z,99831.00
2023-07-25T06:12:57.568Z,99821.81
2023-07-25T06:14:53.450Z,99824.25
2023-07-25T06:16:48.979Z,99835.69
2023-07-25T06:18:44.007Z,99833.22
2023-07-25T06:20:36.879Z,99836.09
2023-07-25T06:22:31.991Z,99825.25
2023-07-25T06:24:27.522Z,99834.47
2023-07-25T06:26:22.642Z,99824.66
2023-07-25T06:28:18.996Z,99831.81
2023-07-25T06:30:11.874Z,99819.78
2023-07-25T06:32:10.885Z,99830.00
2023-07-25T06:34:03.359Z,99834.91
2023-07-25T06:35:58.792Z,99840.84
2023-07-25T06:37:53.891Z,99835.91
2023-07-25T06:39:46.751Z,99838.41
2023-07-25T06:41:41.882Z,99830.03
2023-07-25T06:43:34.421Z,99833.09
2023-07-25T06:45:30.205Z,99832.28
2023-07-25T06:47:25.784Z,99833.28
2023-07-25T06:49:21.280Z,99829.00
2023-07-25T06:51:16.656Z,99833.72
2023-07-25T06:53:12.775Z,99827.38
2023-07-25T06:55:10.128Z,99819.63
2023-07-25T06:57:08.540Z,99801.22
2023-07-25T06:59:03.642Z,99812.84
2023-07-25T07:00:59.578Z,99814.50
2023-07-25T07:02:57.745Z,99801.22
2023-07-25T07:04:53.303Z,99804.25
2023-07-25T07:06:48.508Z,99795.47
2023-07-25T07:08:43.932Z,99794.03
2023-07-25T07:10:36.640Z,99791.75
2023-07-25T07:12:32.087Z,99798.50
2023-07-25T07:14:27.524Z,99791.34
2023-07-25T07:16:23.551Z,99779.47
2023-07-25T07:18:22.086Z,99789.09
2023-07-25T07:20:15.171Z,99784.00
2023-07-25T07:22:10.661Z,99786.66
2023-07-25T07:24:06.678Z,99791.75
2023-07-25T07:26:02.243Z,99791.56
2023-07-25T07:27:55.511Z,99789.09
2023-07-25T07:29:51.070Z,99790.94
2023-07-25T07:31:46.813Z,99785.03
2023-07-25T07:39:58.648Z,99786.25
2023-07-25T07:41:54.470Z,99784.19
2023-07-25T07:43:49.930Z,99793.78
2023-07-25T07:45:45.733Z,99785.63
2023-07-25T07:47:41.376Z,99783.59
2023-07-25T07:49:39.935Z,99790.72
2023-07-25T07:51:35.062Z,99785.22
2023-07-25T07:53:30.730Z,99798.31
2023-07-25T07:55:26.109Z,99787.69
2023-07-25T07:57:18.933Z,99785.41
2023-07-25T07:59:14.152Z,99773.94
2023-07-25T08:01:17.336Z,99769.25
2023-07-25T08:03:12.374Z,99759.41
2023-07-25T08:05:11.521Z,99753.03
2023-07-25T08:07:08.231Z,99751.91
2023-07-25T08:09:03.715Z,99753.50
2023-07-25T08:10:56.208Z,99755.47
2023-07-25T08:12:51.355Z,99765.31
2023-07-25T08:14:46.813Z,99759.97
2023-07-25T08:16:42.017Z,99751.78
2023-07-25T08:18:37.632Z,99764.06
2023-07-25T08:20:35.625Z,99763.47
2023-07-25T08:22:31.038Z,99754.53
2023-07-25T08:24:26.296Z,99753.41
2023-07-25T08:26:19.269Z,99742.66
2023-07-25T08:28:14.434Z,99741.78
2023-07-25T08:30:11.507Z,99740.59
2023-07-25T08:32:04.709Z,99743.63
2023-07-25T08:34:00.331Z,99750.31
2023-07-25T08:35:56.334Z,99753.59
2023-07-25T08:37:51.685Z,99761.06
2023-07-25T08:39:47.242Z,99756.63
2023-07-25T08:41:46.963Z,99764.63
2023-07-25T08:43:40.720Z,99773.69
2023-07-25T08:45:37.447Z,99771.00
2023-07-25T08:47:35.145Z,99777.06
2023-07-25T08:49:34.566Z,99774.16
2023-07-25T08:51:36.344Z,99769.41
2023-07-25T08:53:29.882Z,99768.28
2023-07-25T08:55:25.384Z,99765.56
2023-07-25T08:57:20.037Z,99766.16
2023-07-25T08:59:16.551Z,99764.09
2023-07-25T09:01:11.954Z,99763.00
2023-07-25T09:03:08.120Z,99769.63
2023-07-25T09:05:03.954Z,99763.41
2023-07-25T09:07:03.703Z,99769.78
2023-07-25T09:08:58.746Z,99773.22
2023-07-25T09:10:56.239Z,99767.75
2023-07-25T09:12:52.975Z,99773.44
2023-07-25T09:14:48.252Z,99778.47
2023-07-25T09:16:43.987Z,99779.22
2023-07-25T09:18:39.139Z,99781.44
2023-07-25T09:20:34.298Z,99784.00
2023-07-25T09:22:34.183Z,99786.66
2023-07-25T09:24:35.770Z,99792.44
2023-07-25T09:26:32.952Z,99800.25
2023-07-25T09:28:28.086Z,99796.41
2023-07-25T09:30:23.491Z,99801.47
2023-07-25T09:32:20.385Z,99810.75
2023-07-25T09:34:20.241Z,99810.16
2023-07-25T09:36:15.762Z,99813.94
2023-07-25T09:38:13.356Z,99810.53
2023-07-25T09:40:13.153Z,99807.13
2023-07-25T09:42:11.025Z,99815.19
2023-07-25T09:44:06.905Z,99807.16
2023-07-25T09:46:01.993Z,99808.19
2023-07-25T09:47:57.519Z,99799.09
2023-07-25T09:49:52.081Z,99798.50
2023-07-25T09:52:00.822Z,99795.91
2023-07-25T09:53:59.084Z,99784.94
2023-07-25T09:55:54.879Z,99787.75
2023-07-25T09:57:50.549Z,99791.00
2023-07-25T09:59:43.794Z,99787.63
2023-07-25T10:01:41.377Z,99791.88
2023-07-25T10:03:37.391Z,99791.56
2023-07-25T10:05:30.210Z,99798.56
2023-07-25T10:07:27.247Z,99799.81
2023-07-25T10:09:25.496Z,99793.81
2023-07-25T10:11:21.085Z,99793.66
2023-07-25T10:13:18.556Z,99787.44
2023-07-25T10:15:15.873Z,99793.81
2023-07-25T10:17:10.345Z,99801.38
2023-07-25T10:19:09.157Z,99797.97
2023-07-25T10:21:04.534Z,99794.53
2023-07-25T10:23:10.784Z,99812.22
2023-07-25T10:25:12.526Z,99803.78
2023-07-25T10:27:12.484Z,99802.31
2023-07-25T10:29:42.828Z,99801.50
2023-07-25T10:31:38.374Z,99798.38
2023-07-25T10:33:40.804Z,99789.63
2023-07-25T10:35:55.977Z,99799.44
2023-07-25T10:37:48.501Z,99797.06
2023-07-25T10:39:43.968Z,99791.56
2023-07-25T10:41:41.671Z,99796.88
2023-07-25T10:43:57.238Z,99804.97
2023-07-25T10:45:57.266Z,99798.88
2023-07-25T10:47:51.150Z,99803.13
2023-07-25T10:50:01.288Z,99798.81
2023-07-25T10:51:59.605Z,99791.78
2023-07-25T10:54:18.938Z,99783.31
2023-07-25T10:56:16.642Z,99775.47
2023-07-25T10:58:15.506Z,99779.19
2023-07-25T11:00:12.643Z,99780.56
2023-07-25T11:02:32.067Z,99778.56
2023-07-25T11:04:30.387Z,99776.53
2023-07-25T11:06:41.424Z,99766.50
2023-07-25T11:08:37.029Z,99769.69
2023-07-25T11:10:33.011Z,99772.63
2023-07-25T11:12:28.168Z,99771.88
2023-07-25T11:14:26.219Z,99775.25
2023-07-25T11:16:18.903Z,99763.59
2023-07-25T11:18:14.772Z,99765.97
2023-07-25T11:20:17.860Z,99760.97
2023-07-25T11:22:14.697Z,99751.91
2023-07-25T11:24:08.637Z,99753.75
2023-07-25T11:26:08.284Z,99747.34
2023-07-25T11:28:03.605Z,99740.28
2023-07-25T11:30:12.392Z,99740.38
2023-07-25T11:32:08.012Z,99749.91
2023-07-25T11:34:10.330Z,99737.69
2023-07-25T11:36:05.666Z,99744.31
2023-07-25T11:38:04.171Z,99754.81
2023-07-25T11:39:59.223Z,99738.28
2023-07-25T11:41:55.348Z,99735.59
2023-07-25T11:43:50.501Z,99736.56
2023-07-25T11:45:49.373Z,99743.38
2023-07-25T11:47:46.453Z,99736.53
2023-07-25T11:49:50.017Z,99727.78
2023-07-25T11:51:51.724Z,99733.63
2023-07-25T11:53:46.567Z,99734.56
2023-07-25T11:55:42.795Z,99737.22
2023-07-25T11:57:41.612Z,99743.88
2023-07-25T11:59:42.950Z,99739.19
2023-07-25T12:01:41.378Z,99737.28
2023-07-25T12:03:36.623Z,99735.44
2023-07-25T12:05:34.180Z,99732.47
2023-07-25T12:07:29.536Z,99733.81
2023-07-25T12:09:32.498Z,99733.34
2023-07-25T12:11:25.369Z,99731.00
2023-07-25T12:13:21.148Z,99723.59
2023-07-25T12:15:17.246Z,99726.97
2023-07-25T12:17:15.270Z,99731.69
2023-07-25T12:19:12.931Z,99722.81
2023-07-25T12:21:06.173Z,99719.53
2023-07-25T12:23:10.838Z,99727.34
2023-07-25T12:25:06.576Z,99725.69
2023-07-25T12:27:03.354Z,99719.06
2023-07-25T12:28:59.529Z,99725.81
2023-07-25T12:30:52.738Z,99730.88
2023-07-25T12:32:50.769Z,99721.16
2023-07-25T12:34:46.780Z,99721.63
2023-07-25T12:36:42.479Z,99715.75
2023-07-25T12:38:35.344Z,99718.28
2023-07-25T12:40:31.056Z,99711.88
2023-07-25T12:42:26.456Z,99712.41
2023-07-25T12:44:22.332Z,99715.28
2023-07-25T12:46:17.765Z,99715.94
2023-07-25T12:48:16.146Z,99712.25
2023-07-25T12:50:10.172Z,99710.75
2023-07-25T12:52:06.421Z,99711.63
2023-07-25T12:54:02.739Z,99706.19
2023-07-25T12:55:58.625Z,99710.00
2023-07-25T12:57:52.056Z,99708.09
2023-07-25T12:59:47.708Z,99707.47
2023-07-25T13:01:43.189Z,99699.88
2023-07-25T13:03:43.567Z,99703.19
2023-07-25T13:05:36.560Z,99705.56
2023-07-25T13:07:32.156Z,99700.63
2023-07-25T13:09:27.857Z,99700.69
2023-07-25T13:11:20.575Z,99701.81
2023-07-25T13:13:16.561Z,99706.19
2023-07-25T13:15:12.807Z,99717.81
2023-07-25T13:17:08.772Z,99717.34
2023-07-25T13:19:06.728Z,99717.72
2023-07-25T13:21:02.486Z,99711.44
2023-07-25T13:22:57.948Z,99717.50
2023-07-25T13:24:53.205Z,99710.16
2023-07-25T13:26:48.641Z,99713.53
2023-07-25T13:28:44.502Z,99714.97
2023-07-25T13:30:37.378Z,99720.81
2023-07-25T13:32:33.031Z,99725.56
2023-07-25T13:34:31.762Z,99722.09
2023-07-25T13:36:27.165Z,99722.47
2023-07-25T13:38:22.945Z,99724.28
2023-07-25T13:40:15.802Z,99718.28
2023-07-25T13:42:11.886Z,99728.28
2023-07-25T13:44:07.434Z,99721.09
2023-07-25T13:46:04.809Z,99722.44
2023-07-25T13:48:00.430Z,99716.03
2023-07-25T13:49:59.607Z,99725.47
2023-07-25T13:51:54.642Z,99723.47
2023-07-25T13:53:50.109Z,99727.44
2023-07-25T13:55:45.152Z,99726.72
2023-07-25T13:57:40.555Z,99729.44
2023-07-25T13:59:35.645Z,99735.47
2023-07-25T14:01:31.428Z,99729.91
2023-07-25T14:03:28.259Z,99723.63
2023-07-25T14:05:28.306Z,99711.84
2023-07-25T14:07:23.344Z,99721.59
2023-07-25T14:09:16.459Z,99721.25
2023-07-25T14:11:11.708Z,99725.09
2023-07-25T14:13:07.299Z,99720.59
2023-07-25T14:15:02.665Z,99721.66
2023-07-25T14:16:58.405Z,99711.69
2023-07-25T14:18:50.930Z,99713.31
2023-07-25T14:20:48.688Z,99721.91
2023-07-25T14:22:44.101Z,99723.28
2023-07-25T14:24:39.174Z,99714.34
2023-07-25T14:26:37.091Z,99714.16
2023-07-25T14:28:32.629Z,99719.72
2023-07-25T14:30:28.343Z,99718.28
2023-07-25T14:32:25.809Z,99719.19
2023-07-25T14:34:24.314Z,99718.19
2023-07-25T14:36:22.003Z,99717.41
2023-07-25T14:38:17.719Z,99717.50
2023-07-25T14:40:12.352Z,99712.94
2023-07-25T14:42:08.257Z,99709.63
2023-07-25T14:44:03.349Z,99722.78
2023-07-25T14:45:58.865Z,99719.59
2023-07-25T14:47:51.515Z,99719.66
2023-07-25T14:49:46.633Z,99711.59
2023-07-25T14:51:44.595Z,99714.53
2023-07-25T14:53:39.722Z,99706.31
2023-07-25T14:55:35.195Z,99713.81
2023-07-25T14:57:31.782Z,99715.66
2023-07-25T14:59:27.269Z,99720.47
2023-07-25T15:01:22.925Z,99720.22
2023-07-25T15:03:18.941Z,99715.88
2023-07-25T15:05:14.577Z,99712.84
2023-07-25T15:07:12.404Z,99713.91
2023-07-25T15:09:07.695Z,99717.44
2023-07-25T15:11:03.256Z,99723.19
2023-07-25T15:12:58.428Z,99719.94
2023-07-25T15:14:53.973Z,99716.34
2023-07-25T15:16:49.385Z,99706.78
2023-07-25T15:18:44.965Z,99715.47
2023-07-25T15:20:40.816Z,99714.16
2023-07-25T15:22:39.741Z,99719.72
2023-07-25T15:24:35.684Z,99713.03
2023-07-25T15:26:31.020Z,99717.50
2023-07-25T15:28:26.818Z,99717.78
2023-07-25T15:30:20.432Z,99716.34
2023-07-25T15:32:26.285Z,99714.59
2023-07-25T15:34:22.011Z,99709.06
2023-07-25T15:36:17.872Z,99707.09
2023-07-25T15:38:16.841Z,99701.94
2023-07-25T15:40:14.681Z,99708.44
2023-07-25T15:42:12.163Z,99696.56
2023-07-25T15:44:08.134Z,99702.53
2023-07-25T15:46:05.492Z,99697.03
2023-07-25T15:48:01.958Z,99704.41
2023-07-25T15:49:58.521Z,99710.41
2023-07-25T15:51:54.655Z,99715.88
2023-07-25T15:53:52.582Z,99712.13
2023-07-25T15:55:48.492Z,99708.31
2023-07-25T15:57:42.127Z,99701.19
2023-07-25T15:59:39.467Z,99708.13
2023-07-25T16:01:35.828Z,99704.88
2023-07-25T16:03:28.711Z,99712.81
2023-07-25T16:05:27.868Z,99700.56
2023-07-25T16:07:20.808Z,99714.13
2023-07-25T16:09:19.605Z,99709.56
2023-07-25T16:11:15.148Z,99703.94
2023-07-25T16:13:21.239Z,99707.25
2023-07-25T16:15:18.012Z,99703.53
2023-07-25T16:17:13.236Z,99708.66
2023-07-25T16:19:17.358Z,99702.94
2023-07-25T16:21:18.071Z,99714.13
2023-07-25T16:23:22.736Z,99706.69
2023-07-25T16:25:35.285Z,99699.63
2023-07-25T16:27:41.584Z,99700.91
2023-07-25T16:29:48.135Z,99695.06
2023-07-25T16:31:51.714Z,99700.69
2023-07-25T16:33:56.842Z,99703.13
2023-07-25T16:35:59.152Z,99703.66
2023-07-25T16:38:00.539Z,99704.13
2023-07-25T16:40:00.499Z,99705.13
2023-07-25T16:42:03.996Z,99697.66
2023-07-25T16:44:03.101Z,99706.69
2023-07-25T16:46:05.663Z,99707.09
2023-07-25T16:48:05.690Z,99707.09
2023-07-25T16:50:02.645Z,99710.56
2023-07-25T16:51:59.968Z,99709.38
2023-07-25T16:53:56.302Z,99710.72
2023-07-25T16:55:55.647Z,99707.66
2023-07-25T16:57:57.288Z,99711.66
2023-07-25T16:59:56.567Z,99705.72
2023-07-25T17:01:54.185Z,99707.72
2023-07-25T17:03:50.553Z,99714.72
2023-07-25T17:05:47.523Z,99710.59
2023-07-25T17:07:44.531Z,99716.44
2023-07-25T17:09:39.720Z,99716.53
2023-07-25T17:11:35.853Z,99710.44
2023-07-25T17:13:33.474Z,99718.41
2023-07-25T17:15:28.965Z,99723.19
2023-07-25T17:17:24.061Z,99715.00
2023-07-25T17:19:19.406Z,99712.13
2023-07-25T17:21:18.375Z,99722.69
2023-07-25T17:23:19.112Z,99720.91
2023-07-25T17:25:11.551Z,99721.56
2023-07-25T17:27:07.644Z,99727.69
2023-07-25T17:29:05.913Z,99735.78
2023-07-25T17:30:58.840Z,99733.91
2023-07-25T17:32:55.042Z,99735.56
2023-07-25T17:34:50.590Z,99735.19
2023-07-25T17:36:45.652Z,99735.84
2023-07-25T17:38:40.756Z,99738.69
2023-07-25T17:40:36.200Z,99726.63
2023-07-25T17:42:31.528Z,99728.78
2023-07-25T17:44:29.644Z,99732.84
2023-07-25T17:46:24.841Z,99731.16
2023-07-25T17:48:21.650Z,99734.94
2023-07-25T17:50:14.133Z,99730.94
2023-07-25T17:52:10.688Z,99722.78
2023-07-25T17:54:05.739Z,99725.88
2023-07-25T17:56:01.118Z,99726.66
2023-07-25T17:57:53.919Z,99725.22
2023-07-25T17:59:51.908Z,99728.69
2023-07-25T18:01:47.705Z,99733.28
2023-07-25T18:03:40.709Z,99720.91
2023-07-25T18:05:36.088Z,99724.16
2023-07-25T18:07:31.795Z,99735.13
2023-07-25T18:09:27.185Z,99736.66
2023-07-25T18:11:23.007Z,99732.13
2023-07-25T18:13:21.244Z,99736.34
2023-07-25T18:15:19.547Z,99749.69
2023-07-25T18:17:14.894Z,99748.25
2023-07-25T18:19:10.558Z,99753.91
2023-07-25T18:21:07.205Z,99759.00
2023-07-25T18:23:04.951Z,99761.53
2023-07-25T18:24:57.844Z,99755.59
2023-07-25T18:26:53.564Z,99760.94
2023-07-25T18:28:49.154Z,99762.50
2023-07-25T18:30:47.614Z,99765.44
2023-07-25T18:32:43.000Z,99767.97
2023-07-25T18:34:38.663Z,99773.50
2023-07-25T18:36:31.604Z,99773.34
2023-07-25T18:38:27.266Z,99776.13
2023-07-25T18:40:22.733Z,99771.09
2023-07-25T18:42:18.182Z,99772.41
2023-07-25T18:44:13.835Z,99767.06
2023-07-25T18:46:09.207Z,99782.63
2023-07-25T18:48:04.931Z,99782.78
2023-07-25T18:50:00.300Z,99786.28
2023-07-25T18:51:56.138Z,99789.41
2023-07-25T18:53:51.232Z,99788.56
2023-07-25T18:55:44.216Z,99792.50
2023-07-25T18:57:39.466Z,99801.69
2023-07-25T18:59:32.414Z,99799.94
2023-07-25T19:01:30.627Z,99808.00
2023-07-25T19:03:29.880Z,99808.00
2023-07-25T19:05:25.363Z,99809.63
2023-07-25T19:07:19.641Z,99806.16
2023-07-25T19:09:14.859Z,99813.50
2023-07-25T19:11:07.855Z,99811.88
2023-07-25T19:13:03.147Z,99817.22
2023-07-25T19:14:58.624Z,99822.47
2023-07-25T19:16:56.485Z,99820.16
2023-07-25T19:18:52.137Z,99827.81
2023-07-25T19:20:47.358Z,99830.50
2023-07-25T19:22:42.954Z,99835.75
2023-07-25T19:24:38.187Z,99841.69
2023-07-25T19:26:34.010Z,99835.28
2023-07-25T19:28:29.687Z,99845.63
2023-07-25T19:30:25.237Z,99846.94
2023-07-25T19:32:23.979Z,99848.56
2023-07-25T19:34:16.674Z,99849.84
2023-07-25T19:36:11.844Z,99854.25
2023-07-25T19:38:04.707Z,99852.38
2023-07-25T19:39:59.963Z,99854.94
2023-07-25T19:41:55.157Z,99858.66
2023-07-25T19:43:48.802Z,99858.31
2023-07-25T19:45:45.202Z,99861.13
2023-07-25T19:47:42.981Z,99865.16
2023-07-25T19:49:38.455Z,99867.06
2023-07-25T19:51:33.769Z,99872.88
2023-07-25T19:53:31.004Z,99870.63
2023-07-25T19:55:23.808Z,99871.25
2023-07-25T19:57:18.950Z,99870.63
2023-07-25T19:59:14.667Z,99869.22
2023-07-25T20:01:10.442Z,99871.44
2023-07-25T20:03:08.429Z,99881.34
2023-07-25T20:05:04.323Z,99877.38
2023-07-25T20:06:59.596Z,99884.81
2023-07-25T20:08:55.239Z,99886.06
2023-07-25T20:10:50.637Z,99887.00
2023-07-25T20:12:45.963Z,99890.25
2023-07-25T20:14:41.496Z,99894.91
2023-07-25T20:16:37.503Z,99886.31
2023-07-25T20:18:35.638Z,99886.66
2023-07-25T20:20:30.751Z,99893.06
2023-07-25T20:22:26.051Z,99891.78
2023-07-25T20:24:19.085Z,99884.78
2023-07-25T20:26:15.095Z,99893.66
2023-07-25T20:28:10.648Z,99890.03
2023-07-25T20:30:05.884Z,99891.66
2023-07-25T20:32:02.793Z,99899.31
2023-07-25T20:34:02.581Z,99892.31
2023-07-25T20:35:58.224Z,99906.25
2023-07-25T20:37:56.134Z,99904.97
2023-07-25T20:39:51.214Z,99894.41
2023-07-25T20:41:47.476Z,99896.75
2023-07-25T20:43:39.926Z,99901.38
2023-07-25T20:45:35.799Z,99910.47
2023-07-25T20:47:31.170Z,99907.44
2023-07-25T20:49:27.005Z,99914.41
2023-07-25T20:51:22.204Z,99920.66
2023-07-25T20:53:17.903Z,99922.63
2023-07-25T20:55:10.782Z,99926.31
2023-07-25T20:57:06.790Z,99928.75
2023-07-25T20:59:02.757Z,99931.63
2023-07-25T21:00:58.492Z,99934.75
2023-07-25T21:02:51.483Z,99931.78
2023-07-25T21:04:50.000Z,99931.78
2023-07-25T21:06:45.691Z,99937.13
2023-07-25T21:08:41.393Z,99946.63
2023-07-25T21:10:36.730Z,99949.66
2023-07-25T21:12:29.838Z,99947.88
2023-07-25T21:14:25.289Z,99953.53
2023-07-25T21:16:21.211Z,99950.28
2023-07-25T21:18:16.622Z,99954.41
2023-07-25T21:20:16.700Z,99957.53
2023-07-25T21:22:12.110Z,99961.47
2023-07-25T21:24:08.832Z,99965.91
2023-07-25T21:26:04.710Z,99962.13
2023-07-25T21:28:02.331Z,99972.59
2023-07-25T21:29:59.925Z,99972.44
2023-07-25T21:31:55.613Z,99982.59
2023-07-25T21:33:48.219Z,99978.22
2023-07-25T21:35:46.147Z,99967.97
2023-07-25T21:37:41.225Z,99980.78
2023-07-25T21:39:36.633Z,99986.03
2023-07-25T21:41:29.038Z,99989.38
2023-07-25T21:43:24.415Z,99980.97
2023-07-25T21:45:19.714Z,99985.97
2023-07-25T21:47:15.472Z,99987.41
2023-07-25T21:49:08.080Z,99987.00
2023-07-25T21:51:06.481Z,99989.00
2023-07-25T21:53:01.741Z,100000.75
2023-07-25T21:54:57.234Z,100001.03
2023-07-25T21:56:52.353Z,99997.41
2023-07-25T21:58:47.943Z,100004.41
2023-07-25T22:00:42.926Z,99998.44
2023-07-25T22:02:38.410Z,99998.38
2023-07-25T22:04:33.761Z,99999.63
2023-07-25T22:06:30.133Z,100004.59
2023-07-25T22:08:25.596Z,100003.34
2023-07-25T22:10:20.802Z,100004.81
2023-07-25T22:12:16.200Z,100007.03
2023-07-25T22:14:11.403Z,100012.59
2023-07-25T22:16:07.321Z,100008.28
2023-07-25T22:17:59.849Z,100019.78
2023-07-25T22:19:54.963Z,100013.78
2023-07-25T22:21:50.348Z,100008.28
2023-07-25T22:23:45.478Z,100015.47
2023-07-25T22:25:40.857Z,100019.25
2023-07-25T22:27:37.096Z,100020.28
2023-07-25T22:29:32.121Z,100021.75
2023-07-25T22:31:27.654Z,100031.00
2023-07-25T22:33:22.673Z,100027.09
2023-07-25T22:35:18.150Z,100032.44
2023-07-25T22:37:15.918Z,100032.00
2023-07-25T22:39:11.258Z,100032.00
2023-07-25T22:41:06.435Z,100030.97
2023-07-25T22:42:59.445Z,100029.94
2023-07-25T22:44:54.461Z,100033.03
2023-07-25T22:46:49.789Z,100027.53
2023-07-25T22:48:44.923Z,100035.97
2023-07-25T22:50:40.239Z,100035.72